sensor_id;sensor_type;location;lat;lon;timestamp;pressure;altitude;pressure_sealevel;temperature;humidity
47280;BME280;34064;44.942;0.008;2023-05-22T00:00:10;98489.81;;;18.91;62.37
47280;BME280;34064;44.942;0.008;2023-05-22T00:02:38;98491.03;;;18.88;62.58
47280;BME280;34064;44.942;0.008;2023-05-22T00:05:09;98491.38;;;18.85;62.59
47280;BME280;34064;44.942;0.008;2023-05-22T00:07:36;98494.06;;;18.85;62.51
47280;BME280;34064;44.942;0.008;2023-05-22T00:10:03;98490.56;;;18.84;62.51
47280;BME280;34064;44.942;0.008;2023-05-22T00:12:30;98489.72;;;18.84;62.36
47280;BME280;34064;44.942;0.008;2023-05-22T00:14:56;98488.69;;;18.85;62.50
47280;BME280;34064;44.942;0.008;2023-05-22T00:17:23;98493.06;;;18.86;62.66
47280;BME280;34064;44.942;0.008;2023-05-22T00:19:53;98489.34;;;18.87;62.78
47280;BME280;34064;44.942;0.008;2023-05-22T00:22:20;98488.34;;;18.88;62.52
47280;BME280;34064;44.942;0.008;2023-05-22T00:24:46;98487.31;;;18.89;62.38
47280;BME280;34064;44.942;0.008;2023-05-22T00:27:13;98479.91;;;18.91;62.29
47280;BME280;34064;44.942;0.008;2023-05-22T00:29:39;98479.91;;;18.91;62.57
47280;BME280;34064;44.942;0.008;2023-05-22T00:32:06;98479.91;;;18.91;62.18
47280;BME280;34064;44.942;0.008;2023-05-22T00:34:32;98474.53;;;18.91;62.21
47280;BME280;34064;44.942;0.008;2023-05-22T00:36:59;98471.69;;;18.93;62.32
47280;BME280;34064;44.942;0.008;2023-05-22T00:39:25;98472.84;;;18.90;62.42
47280;BME280;34064;44.942;0.008;2023-05-22T00:41:51;98474.41;;;18.84;62.37
47280;BME280;34064;44.942;0.008;2023-05-22T00:44:18;98479.31;;;18.81;62.45
47280;BME280;34064;44.942;0.008;2023-05-22T00:46:44;98479.66;;;18.78;62.51
47280;BME280;34064;44.942;0.008;2023-05-22T00:49:10;98476.31;;;18.76;62.41
47280;BME280;34064;44.942;0.008;2023-05-22T00:51:37;98469.28;;;18.75;62.44
47280;BME280;34064;44.942;0.008;2023-05-22T00:54:04;98480.03;;;18.75;62.44
47280;BME280;34064;44.942;0.008;2023-05-22T00:56:31;98469.63;;;18.71;62.58
47280;BME280;34064;44.942;0.008;2023-05-22T00:58:58;98474.16;;;18.71;62.62
47280;BME280;34064;44.942;0.008;2023-05-22T01:01:25;98464.97;;;18.65;62.79
47280;BME280;34064;44.942;0.008;2023-05-22T01:03:58;98468.81;;;18.63;62.72
47280;BME280;34064;44.942;0.008;2023-05-22T01:06:34;98477.06;;;18.61;62.69
47280;BME280;34064;44.942;0.008;2023-05-22T01:09:01;98472.72;;;18.60;62.66
47280;BME280;34064;44.942;0.008;2023-05-22T01:12:00;98471.03;;;18.59;62.95
47280;BME280;34064;44.942;0.008;2023-05-22T01:17:06;98472.03;;;18.58;62.96
47280;BME280;34064;44.942;0.008;2023-05-22T01:25:55;98464.97;;;18.57;62.87
47280;BME280;34064;44.942;0.008;2023-05-22T01:31:17;98464.34;;;18.55;63.62
47280;BME280;34064;44.942;0.008;2023-05-22T01:34:02;98461.66;;;18.55;63.50
47280;BME280;34064;44.942;0.008;2023-05-22T01:36:31;98451.06;;;18.53;63.53
47280;BME280;34064;44.942;0.008;2023-05-22T01:39:02;98457.63;;;18.51;63.67
47280;BME280;34064;44.942;0.008;2023-05-22T01:41:32;98451.44;;;18.50;63.04
47280;BME280;34064;44.942;0.008;2023-05-22T01:44:00;98457.69;;;18.43;63.17
47280;BME280;34064;44.942;0.008;2023-05-22T01:46:30;98452.84;;;18.38;63.35
47280;BME280;34064;44.942;0.008;2023-05-22T01:48:59;98455.72;;;18.36;62.90
47280;BME280;34064;44.942;0.008;2023-05-22T01:54:13;98454.38;;;18.32;63.22
47280;BME280;34064;44.942;0.008;2023-05-22T01:56:52;98449.81;;;18.33;62.91
47280;BME280;34064;44.942;0.008;2023-05-22T01:59:39;98447.31;;;18.31;63.14
47280;BME280;34064;44.942;0.008;2023-05-22T02:02:12;98446.84;;;18.28;63.06
47280;BME280;34064;44.942;0.008;2023-05-22T02:04:49;98444.34;;;18.26;63.43
47280;BME280;34064;44.942;0.008;2023-05-22T02:07:20;98438.09;;;18.26;63.27
47280;BME280;34064;44.942;0.008;2023-05-22T02:09:48;98440.97;;;18.24;63.20
47280;BME280;34064;44.942;0.008;2023-05-22T02:12:15;98428.72;;;18.21;63.21
47280;BME280;34064;44.942;0.008;2023-05-22T02:14:43;98428.06;;;18.19;63.28
47280;BME280;34064;44.942;0.008;2023-05-22T02:17:09;98425.56;;;18.18;63.06
47280;BME280;34064;44.942;0.008;2023-05-22T02:19:36;98434.63;;;18.17;62.92
47280;BME280;34064;44.942;0.008;2023-05-22T02:22:03;98434.63;;;18.17;62.85
47280;BME280;34064;44.942;0.008;2023-05-22T02:24:30;98430.09;;;18.17;62.94
47280;BME280;34064;44.942;0.008;2023-05-22T02:26:57;98423.03;;;18.16;62.69
47280;BME280;34064;44.942;0.008;2023-05-22T02:29:23;98417.00;;;18.14;62.79
47280;BME280;34064;44.942;0.008;2023-05-22T02:31:52;98425.91;;;18.15;62.60
47280;BME280;34064;44.942;0.008;2023-05-22T02:34:18;98425.25;;;18.13;62.83
47280;BME280;34064;44.942;0.008;2023-05-22T02:36:44;98426.63;;;18.08;62.96
47280;BME280;34064;44.942;0.008;2023-05-22T02:39:11;98434.00;;;18.06;62.77
47280;BME280;34064;44.942;0.008;2023-05-22T02:41:37;98436.38;;;18.01;62.86
47280;BME280;34064;44.942;0.008;2023-05-22T02:44:03;98435.88;;;17.98;63.25
47280;BME280;34064;44.942;0.008;2023-05-22T02:46:30;98429.16;;;17.93;63.19
47280;BME280;34064;44.942;0.008;2023-05-22T02:48:57;98435.69;;;17.91;62.96
47280;BME280;34064;44.942;0.008;2023-05-22T02:51:26;98438.91;;;17.86;63.16
47280;BME280;34064;44.942;0.008;2023-05-22T02:53:56;98433.06;;;17.83;63.00
47280;BME280;34064;44.942;0.008;2023-05-22T02:56:24;98437.09;;;17.78;62.99
47280;BME280;34064;44.942;0.008;2023-05-22T02:58:56;98429.19;;;17.77;62.73
47280;BME280;34064;44.942;0.008;2023-05-22T03:01:30;98432.41;;;17.72;63.06
47280;BME280;34064;44.942;0.008;2023-05-22T03:04:06;98427.41;;;17.69;63.07
47280;BME280;34064;44.942;0.008;2023-05-22T03:06:34;98421.69;;;17.64;63.13
47280;BME280;34064;44.942;0.008;2023-05-22T03:09:03;98433.44;;;17.63;63.04
47280;BME280;34064;44.942;0.008;2023-05-22T03:11:36;98437.13;;;17.62;62.93
47280;BME280;34064;44.942;0.008;2023-05-22T03:14:06;98434.63;;;17.60;62.83
47280;BME280;34064;44.942;0.008;2023-05-22T03:16:33;98442.50;;;17.62;62.91
47280;BME280;34064;44.942;0.008;2023-05-22T03:19:13;98437.13;;;17.62;62.86
47280;BME280;34064;44.942;0.008;2023-05-22T03:21:39;98453.25;;;17.62;62.93
47280;BME280;34064;44.942;0.008;2023-05-22T03:24:06;98452.44;;;17.61;62.78
47280;BME280;34064;44.942;0.008;2023-05-22T03:26:33;98445.38;;;17.60;63.28
47280;BME280;34064;44.942;0.008;2023-05-22T03:29:00;98455.28;;;17.60;63.57
47280;BME280;34064;44.942;0.008;2023-05-22T03:31:28;98457.78;;;17.61;63.11
47280;BME280;34064;44.942;0.008;2023-05-22T03:33:56;98460.00;;;17.58;63.38
47280;BME280;34064;44.942;0.008;2023-05-22T03:36:23;98455.81;;;17.55;63.42
47280;BME280;34064;44.942;0.008;2023-05-22T03:38:50;98462.19;;;17.54;63.70
47280;BME280;34064;44.942;0.008;2023-05-22T03:41:17;98465.53;;;17.56;63.37
47280;BME280;34064;44.942;0.008;2023-05-22T03:43:44;98459.66;;;17.53;63.80
47280;BME280;34064;44.942;0.008;2023-05-22T03:46:11;98460.31;;;17.55;63.54
47280;BME280;34064;44.942;0.008;2023-05-22T03:48:38;98466.38;;;17.57;63.32
47280;BME280;34064;44.942;0.008;2023-05-22T03:51:05;98470.72;;;17.58;63.42
47280;BME280;34064;44.942;0.008;2023-05-22T03:53:31;98465.34;;;17.58;63.92
47280;BME280;34064;44.942;0.008;2023-05-22T03:55:58;98459.81;;;17.59;64.16
47280;BME280;34064;44.942;0.008;2023-05-22T03:58:25;98468.72;;;17.60;63.83
47280;BME280;34064;44.942;0.008;2023-05-22T04:00:53;98464.34;;;17.59;63.86
47280;BME280;34064;44.942;0.008;2023-05-22T04:03:20;98464.34;;;17.59;63.86
47280;BME280;34064;44.942;0.008;2023-05-22T04:05:47;98457.78;;;17.61;63.89
47280;BME280;34064;44.942;0.008;2023-05-22T04:08:14;98454.28;;;17.61;63.72
47280;BME280;34064;44.942;0.008;2023-05-22T04:10:40;98448.25;;;17.59;63.82
47280;BME280;34064;44.942;0.008;2023-05-22T04:13:07;98457.31;;;17.58;64.02
47280;BME280;34064;44.942;0.008;2023-05-22T04:15:34;98449.91;;;17.60;63.53
47280;BME280;34064;44.942;0.008;2023-05-22T04:18:01;98451.59;;;17.61;63.58
47280;BME280;34064;44.942;0.008;2023-05-22T04:20:27;98456.13;;;17.60;63.75
47280;BME280;34064;44.942;0.008;2023-05-22T04:22:53;98460.47;;;17.61;63.93
47280;BME280;34064;44.942;0.008;2023-05-22T04:25:20;98461.16;;;17.64;63.70
47280;BME280;34064;44.942;0.008;2023-05-22T04:27:47;98459.47;;;17.62;64.09
47280;BME280;34064;44.942;0.008;2023-05-22T04:30:13;98462.84;;;17.65;63.69
47280;BME280;34064;44.942;0.008;2023-05-22T04:32:42;98461.97;;;17.64;63.71
47280;BME280;34064;44.942;0.008;2023-05-22T04:35:09;98454.59;;;17.66;63.83
47280;BME280;34064;44.942;0.008;2023-05-22T04:37:37;98465.00;;;17.69;63.61
47280;BME280;34064;44.942;0.008;2023-05-22T04:40:07;98470.38;;;17.69;63.89
47280;BME280;34064;44.942;0.008;2023-05-22T04:42:35;98469.19;;;17.72;63.62
47280;BME280;34064;44.942;0.008;2023-05-22T04:45:02;98472.38;;;17.75;63.43
47280;BME280;34064;44.942;0.008;2023-05-22T04:47:29;98467.66;;;17.77;63.61
47280;BME280;34064;44.942;0.008;2023-05-22T04:49:57;98465.66;;;17.80;63.60
47280;BME280;34064;44.942;0.008;2023-05-22T04:52:25;98483.28;;;17.82;63.59
47280;BME280;34064;44.942;0.008;2023-05-22T04:54:51;98488.78;;;17.81;63.38
47280;BME280;34064;44.942;0.008;2023-05-22T04:57:19;98489.16;;;17.77;63.13
47280;BME280;34064;44.942;0.008;2023-05-22T04:59:46;98498.41;;;17.75;63.41
47280;BME280;34064;44.942;0.008;2023-05-22T05:02:13;98491.50;;;17.72;63.64
47280;BME280;34064;44.942;0.008;2023-05-22T05:04:40;98499.41;;;17.74;63.85
47280;BME280;34064;44.942;0.008;2023-05-22T05:07:06;98496.53;;;17.75;63.43
47280;BME280;34064;44.942;0.008;2023-05-22T05:09:33;98499.91;;;17.77;63.58
47280;BME280;34064;44.942;0.008;2023-05-22T05:12:00;98499.91;;;17.77;63.52
47280;BME280;34064;44.942;0.008;2023-05-22T05:14:27;98495.22;;;17.80;63.65
47280;BME280;34064;44.942;0.008;2023-05-22T05:16:53;98506.59;;;17.82;63.62
47280;BME280;34064;44.942;0.008;2023-05-22T05:19:20;98506.59;;;17.82;63.39
47280;BME280;34064;44.942;0.008;2023-05-22T05:21:47;98508.28;;;17.83;63.43
47280;BME280;34064;44.942;0.008;2023-05-22T05:24:21;98502.91;;;17.83;63.53
47280;BME280;34064;44.942;0.008;2023-05-22T05:26:50;98500.88;;;17.85;63.32
47280;BME280;34064;44.942;0.008;2023-05-22T05:29:17;98505.94;;;17.88;63.36
47280;BME280;34064;44.942;0.008;2023-05-22T05:31:45;98501.03;;;17.91;63.37
47280;BME280;34064;44.942;0.008;2023-05-22T05:34:13;98496.50;;;17.92;63.33
47280;BME280;34064;44.942;0.008;2023-05-22T05:36:40;98492.78;;;17.93;63.55
47280;BME280;34064;44.942;0.008;2023-05-22T05:39:09;98497.88;;;17.96;63.58
47280;BME280;34064;44.942;0.008;2023-05-22T05:41:41;98488.44;;;18.00;63.87
47280;BME280;34064;44.942;0.008;2023-05-22T05:44:09;98496.66;;;18.07;63.88
47280;BME280;34064;44.942;0.008;2023-05-22T05:46:36;98487.06;;;18.13;63.51
47280;BME280;34064;44.942;0.008;2023-05-22T05:49:07;98491.09;;;18.17;63.69
47280;BME280;34064;44.942;0.008;2023-05-22T05:51:38;98484.19;;;18.22;63.81
47280;BME280;34064;44.942;0.008;2023-05-22T05:54:05;98482.28;;;18.31;63.65
47280;BME280;34064;44.942;0.008;2023-05-22T05:56:33;98467.78;;;18.40;63.78
47280;BME280;34064;44.942;0.008;2023-05-22T05:59:00;98470.91;;;18.52;64.04
47280;BME280;34064;44.942;0.008;2023-05-22T06:01:28;98475.59;;;18.59;63.67
47280;BME280;34064;44.942;0.008;2023-05-22T06:03:55;98465.44;;;18.69;63.96
47280;BME280;34064;44.942;0.008;2023-05-22T06:06:22;98469.38;;;18.81;63.95
47280;BME280;34064;44.942;0.008;2023-05-22T06:08:51;98472.66;;;18.92;64.28
47280;BME280;34064;44.942;0.008;2023-05-22T06:11:18;98471.06;;;19.06;63.88
47280;BME280;34064;44.942;0.008;2023-05-22T06:13:45;98466.28;;;19.16;64.10
47280;BME280;34064;44.942;0.008;2023-05-22T06:16:13;98463.25;;;19.19;64.13
47280;BME280;34064;44.942;0.008;2023-05-22T06:18:41;98466.69;;;19.28;64.20
47280;BME280;34064;44.942;0.008;2023-05-22T06:21:08;98460.41;;;19.36;64.33
47280;BME280;34064;44.942;0.008;2023-05-22T06:23:35;98462.28;;;19.50;64.43
47280;BME280;34064;44.942;0.008;2023-05-22T06:26:02;98462.84;;;19.60;64.54
47280;BME280;34064;44.942;0.008;2023-05-22T06:28:30;98460.72;;;19.71;64.37
47280;BME280;34064;44.942;0.008;2023-05-22T06:30:57;98462.50;;;19.78;64.62
47280;BME280;34064;44.942;0.008;2023-05-22T06:33:24;98459.94;;;19.85;64.54
47280;BME280;34064;44.942;0.008;2023-05-22T06:35:50;98457.50;;;19.90;64.71
47280;BME280;34064;44.942;0.008;2023-05-22T06:38:17;98454.63;;;19.92;64.56
47280;BME280;34064;44.942;0.008;2023-05-22T06:40:43;98459.47;;;19.97;64.69
47280;BME280;34064;44.942;0.008;2023-05-22T06:43:10;98459.72;;;20.02;64.67
47280;BME280;34064;44.942;0.008;2023-05-22T06:45:37;98456.00;;;20.03;64.65
47280;BME280;34064;44.942;0.008;2023-05-22T06:48:03;98458.06;;;20.01;64.71
47280;BME280;34064;44.942;0.008;2023-05-22T06:50:30;98457.41;;;19.99;64.50
47280;BME280;34064;44.942;0.008;2023-05-22T06:52:56;98459.06;;;20.00;64.78
47280;BME280;34064;44.942;0.008;2023-05-22T06:55:23;98467.81;;;20.02;64.78
47280;BME280;34064;44.942;0.008;2023-05-22T06:57:49;98463.53;;;20.07;64.59
47280;BME280;34064;44.942;0.008;2023-05-22T07:00:16;98467.34;;;20.13;64.71
47280;BME280;34064;44.942;0.008;2023-05-22T07:02:43;98468.63;;;20.17;64.66
47280;BME280;34064;44.942;0.008;2023-05-22T07:05:10;98466.88;;;20.24;64.69
47280;BME280;34064;44.942;0.008;2023-05-22T07:07:36;98470.50;;;20.32;64.72
47280;BME280;34064;44.942;0.008;2023-05-22T07:10:03;98467.69;;;20.40;64.50
47280;BME280;34064;44.942;0.008;2023-05-22T07:12:30;98465.31;;;20.52;64.21
47280;BME280;34064;44.942;0.008;2023-05-22T07:14:57;98459.34;;;20.56;64.51
47280;BME280;34064;44.942;0.008;2023-05-22T07:17:25;98459.63;;;20.62;64.46
47280;BME280;34064;44.942;0.008;2023-05-22T07:19:51;98465.28;;;20.67;64.18
47280;BME280;34064;44.942;0.008;2023-05-22T07:22:18;98463.22;;;20.69;64.32
47280;BME280;34064;44.942;0.008;2023-05-22T07:24:45;98468.72;;;20.76;64.21
47280;BME280;34064;44.942;0.008;2023-05-22T07:27:12;98468.16;;;20.80;64.06
47280;BME280;34064;44.942;0.008;2023-05-22T07:29:39;98469.44;;;20.84;64.25
47280;BME280;34064;44.942;0.008;2023-05-22T07:32:06;98471.09;;;20.85;64.23
47280;BME280;34064;44.942;0.008;2023-05-22T07:34:34;98473.63;;;20.87;64.08
47280;BME280;34064;44.942;0.008;2023-05-22T07:37:09;98476.78;;;20.91;64.08
47280;BME280;34064;44.942;0.008;2023-05-22T07:39:36;98474.13;;;20.97;64.09
47280;BME280;34064;44.942;0.008;2023-05-22T07:42:02;98472.50;;;21.03;63.79
47280;BME280;34064;44.942;0.008;2023-05-22T07:44:30;98463.84;;;21.08;63.74
47280;BME280;34064;44.942;0.008;2023-05-22T07:46:56;98470.97;;;21.15;63.84
47280;BME280;34064;44.942;0.008;2023-05-22T07:49:24;98469.56;;;21.19;63.60
47280;BME280;34064;44.942;0.008;2023-05-22T07:51:51;98471.88;;;21.23;nan
47280;BME280;34064;44.942;0.008;2023-05-22T07:54:17;98470.25;;;21.28;63.36
47280;BME280;34064;44.942;0.008;2023-05-22T07:56:44;98467.63;;;21.35;63.27
47280;BME280;34064;44.942;0.008;2023-05-22T07:59:11;98463.09;;;21.42;63.08
47280;BME280;34064;44.942;0.008;2023-05-22T08:01:39;98470.44;;;21.48;63.00
47280;BME280;34064;44.942;0.008;2023-05-22T08:04:06;98456.13;;;21.55;62.65
47280;BME280;34064;44.942;0.008;2023-05-22T08:06:34;98456.38;;;21.60;62.96
47280;BME280;34064;44.942;0.008;2023-05-22T08:09:01;98453.94;;;21.65;62.42
47280;BME280;34064;44.942;0.008;2023-05-22T08:11:28;98451.91;;;21.74;62.35
47280;BME280;34064;44.942;0.008;2023-05-22T08:13:54;98447.81;;;21.85;62.07
47280;BME280;34064;44.942;0.008;2023-05-22T08:16:21;98451.41;;;21.92;62.21
47280;BME280;34064;44.942;0.008;2023-05-22T08:18:48;98455.81;;;22.00;61.95
47280;BME280;34064;44.942;0.008;2023-05-22T08:21:15;98447.09;;;22.04;61.98
47280;BME280;34064;44.942;0.008;2023-05-22T08:23:41;98452.09;;;22.07;61.77
47280;BME280;34064;44.942;0.008;2023-05-22T08:26:08;98458.13;;;22.09;61.51
47280;BME280;34064;44.942;0.008;2023-05-22T08:28:34;98454.81;;;22.14;61.65
47280;BME280;34064;44.942;0.008;2023-05-22T08:31:01;98451.75;;;22.24;61.35
47280;BME280;34064;44.942;0.008;2023-05-22T08:33:28;98454.00;;;22.20;61.49
47280;BME280;34064;44.942;0.008;2023-05-22T08:35:54;98456.31;;;22.23;61.49
47280;BME280;34064;44.942;0.008;2023-05-22T08:38:21;98453.19;;;22.20;60.83
47280;BME280;34064;44.942;0.008;2023-05-22T08:40:48;98450.53;;;22.26;60.86
47280;BME280;34064;44.942;0.008;2023-05-22T08:43:15;98458.22;;;22.29;61.22
47280;BME280;34064;44.942;0.008;2023-05-22T08:45:41;98454.72;;;22.36;61.31
47280;BME280;34064;44.942;0.008;2023-05-22T08:48:12;98454.34;;;22.46;60.96
47280;BME280;34064;44.942;0.008;2023-05-22T08:50:42;98447.50;;;22.50;60.72
47280;BME280;34064;44.942;0.008;2023-05-22T08:53:11;98437.53;;;22.57;60.68
47280;BME280;34064;44.942;0.008;2023-05-22T08:55:40;98430.25;;;22.64;60.64
47280;BME280;34064;44.942;0.008;2023-05-22T08:58:08;98427.16;;;22.74;60.63
47280;BME280;34064;44.942;0.008;2023-05-22T09:00:35;98433.84;;;22.85;60.25
47280;BME280;34064;44.942;0.008;2023-05-22T09:03:02;98427.41;;;22.93;60.14
47280;BME280;34064;44.942;0.008;2023-05-22T09:05:31;98431.75;;;23.00;59.77
47280;BME280;34064;44.942;0.008;2023-05-22T09:07:59;98439.47;;;23.03;60.22
47280;BME280;34064;44.942;0.008;2023-05-22T09:10:26;98427.81;;;23.10;60.10
47280;BME280;34064;44.942;0.008;2023-05-22T09:13:06;98423.06;;;23.18;59.19
47280;BME280;34064;44.942;0.008;2023-05-22T09:15:42;98428.25;;;23.20;59.13
47280;BME280;34064;44.942;0.008;2023-05-22T09:18:09;98422.03;;;23.26;58.86
47280;BME280;34064;44.942;0.008;2023-05-22T09:20:37;98412.00;;;23.33;59.30
47280;BME280;34064;44.942;0.008;2023-05-22T09:23:21;98413.22;;;23.44;58.85
47280;BME280;34064;44.942;0.008;2023-05-22T09:25:54;98406.75;;;23.59;59.22
47280;BME280;34064;44.942;0.008;2023-05-22T09:28:21;98408.41;;;23.66;58.58
47280;BME280;34064;44.942;0.008;2023-05-22T09:30:51;98406.53;;;23.74;58.39
47280;BME280;34064;44.942;0.008;2023-05-22T09:33:18;98399.38;;;23.86;57.85
47280;BME280;34064;44.942;0.008;2023-05-22T09:35:50;98399.78;;;23.96;56.88
47280;BME280;34064;44.942;0.008;2023-05-22T09:38:17;98391.34;;;24.18;56.66
47280;BME280;34064;44.942;0.008;2023-05-22T09:40:43;98385.66;;;24.33;56.09
47280;BME280;34064;44.942;0.008;2023-05-22T09:43:10;98380.28;;;24.58;55.58
47280;BME280;34064;44.942;0.008;2023-05-22T09:45:39;98379.78;;;24.75;54.43
47280;BME280;34064;44.942;0.008;2023-05-22T09:48:07;98383.88;;;24.84;54.23
47280;BME280;34064;44.942;0.008;2023-05-22T09:50:34;98373.69;;;24.80;54.16
47280;BME280;34064;44.942;0.008;2023-05-22T09:53:04;98379.28;;;24.85;53.82
47280;BME280;34064;44.942;0.008;2023-05-22T09:55:31;98366.66;;;24.97;54.13
47280;BME280;34064;44.942;0.008;2023-05-22T09:58:02;98364.44;;;25.13;53.24
47280;BME280;34064;44.942;0.008;2023-05-22T10:00:29;98362.81;;;25.30;52.41
47280;BME280;34064;44.942;0.008;2023-05-22T10:03:05;98352.19;;;25.47;52.36
47280;BME280;34064;44.942;0.008;2023-05-22T10:05:34;98349.34;;;25.61;51.93
47280;BME280;34064;44.942;0.008;2023-05-22T10:08:13;98343.59;;;25.69;51.79
47280;BME280;34064;44.942;0.008;2023-05-22T10:10:41;98344.59;;;25.75;51.98
47280;BME280;34064;44.942;0.008;2023-05-22T10:13:08;98359.00;;;25.57;51.26
47280;BME280;34064;44.942;0.008;2023-05-22T10:15:36;98367.06;;;25.45;52.15
47280;BME280;34064;44.942;0.008;2023-05-22T10:18:03;98374.03;;;25.41;52.47
47280;BME280;34064;44.942;0.008;2023-05-22T10:20:30;98376.41;;;25.30;53.13
47280;BME280;34064;44.942;0.008;2023-05-22T10:22:56;98381.91;;;25.23;52.97
47280;BME280;34064;44.942;0.008;2023-05-22T10:25:23;98379.00;;;25.18;51.17
47280;BME280;34064;44.942;0.008;2023-05-22T10:27:54;98378.44;;;25.35;51.95
47280;BME280;34064;44.942;0.008;2023-05-22T10:32:59;98382.84;;;25.36;52.15
47280;BME280;34064;44.942;0.008;2023-05-22T10:35:37;98381.38;;;25.33;51.61
47280;BME280;34064;44.942;0.008;2023-05-22T10:38:30;98373.56;;;25.44;51.73
47280;BME280;34064;44.942;0.008;2023-05-22T10:41:04;98377.44;;;25.54;51.50
47280;BME280;34064;44.942;0.008;2023-05-22T10:43:31;98377.81;;;25.58;51.62
47280;BME280;34064;44.942;0.008;2023-05-22T10:46:02;98371.72;;;25.63;51.04
47280;BME280;34064;44.942;0.008;2023-05-22T10:48:36;98365.13;;;25.70;50.75
47280;BME280;34064;44.942;0.008;2023-05-22T10:51:03;98358.72;;;25.83;50.60
47280;BME280;34064;44.942;0.008;2023-05-22T10:53:31;98374.56;;;25.87;50.54
47280;BME280;34064;44.942;0.008;2023-05-22T10:55:58;98375.63;;;25.85;50.87
47280;BME280;34064;44.942;0.008;2023-05-22T10:58:34;98380.69;;;25.82;50.50
47280;BME280;34064;44.942;0.008;2023-05-22T11:01:10;98375.94;;;25.77;50.36
47280;BME280;34064;44.942;0.008;2023-05-22T11:03:54;98366.28;;;25.81;50.05
47280;BME280;34064;44.942;0.008;2023-05-22T11:06:36;98370.78;;;25.88;50.11
47280;BME280;34064;44.942;0.008;2023-05-22T11:09:29;98357.09;;;25.94;49.69
47280;BME280;34064;44.942;0.008;2023-05-22T11:12:15;98352.50;;;26.13;48.95
47280;BME280;34064;44.942;0.008;2023-05-22T11:14:46;98340.50;;;26.33;48.49
47280;BME280;34064;44.942;0.008;2023-05-22T11:17:19;98337.72;;;26.52;48.13
47280;BME280;34064;44.942;0.008;2023-05-22T11:22:42;98332.66;;;26.67;48.63
47280;BME280;34064;44.942;0.008;2023-05-22T11:25:15;98326.53;;;26.72;47.99
47280;BME280;34064;44.942;0.008;2023-05-22T11:27:43;98331.72;;;26.73;48.55
47280;BME280;34064;44.942;0.008;2023-05-22T11:30:10;98328.75;;;26.75;48.26
47280;BME280;34064;44.942;0.008;2023-05-22T11:32:38;98331.38;;;26.70;48.05
47280;BME280;34064;44.942;0.008;2023-05-22T11:35:05;98336.72;;;26.76;48.42
47280;BME280;34064;44.942;0.008;2023-05-22T11:37:38;98320.88;;;26.97;47.64
47280;BME280;34064;44.942;0.008;2023-05-22T11:40:06;98313.06;;;27.13;47.23
47280;BME280;34064;44.942;0.008;2023-05-22T11:42:32;98300.25;;;27.37;47.14
47280;BME280;34064;44.942;0.008;2023-05-22T11:44:59;98284.66;;;27.73;46.70
47280;BME280;34064;44.942;0.008;2023-05-22T11:47:29;98273.91;;;27.95;45.84
47280;BME280;34064;44.942;0.008;2023-05-22T11:49:59;98283.94;;;27.78;46.41
47280;BME280;34064;44.942;0.008;2023-05-22T11:52:31;98297.75;;;27.59;46.63
47280;BME280;34064;44.942;0.008;2023-05-22T11:54:59;98301.91;;;27.38;46.81
47280;BME280;34064;44.942;0.008;2023-05-22T11:57:25;98312.47;;;27.11;46.67
47280;BME280;34064;44.942;0.008;2023-05-22T11:59:52;98327.72;;;26.88;47.31
47280;BME280;34064;44.942;0.008;2023-05-22T12:02:19;98332.19;;;26.70;47.50
47280;BME280;34064;44.942;0.008;2023-05-22T12:04:46;98332.53;;;26.62;47.67
47280;BME280;34064;44.942;0.008;2023-05-22T12:07:12;98336.91;;;26.63;47.49
47280;BME280;34064;44.942;0.008;2023-05-22T12:09:40;98318.50;;;26.89;46.92
47280;BME280;34064;44.942;0.008;2023-05-22T12:12:08;98319.94;;;26.91;46.96
47280;BME280;34064;44.942;0.008;2023-05-22T12:14:37;98321.00;;;26.90;46.85
47280;BME280;34064;44.942;0.008;2023-05-22T12:17:04;98322.31;;;27.00;47.02
47280;BME280;34064;44.942;0.008;2023-05-22T12:19:31;98312.59;;;27.04;47.05
47280;BME280;34064;44.942;0.008;2023-05-22T12:21:58;98317.09;;;26.98;47.31
47280;BME280;34064;44.942;0.008;2023-05-22T12:24:24;98319.25;;;26.96;47.55
47280;BME280;34064;44.942;0.008;2023-05-22T12:26:54;98319.34;;;27.01;47.02
47280;BME280;34064;44.942;0.008;2023-05-22T12:29:24;98312.13;;;27.07;46.80
47280;BME280;34064;44.942;0.008;2023-05-22T12:31:51;98291.81;;;27.38;46.28
47280;BME280;34064;44.942;0.008;2023-05-22T12:34:18;98280.94;;;27.79;46.08
47280;BME280;34064;44.942;0.008;2023-05-22T12:36:45;98265.19;;;28.10;44.90
47280;BME280;34064;44.942;0.008;2023-05-22T12:39:16;98255.63;;;28.42;43.71
47280;BME280;34064;44.942;0.008;2023-05-22T12:41:43;98253.22;;;28.45;43.29
47280;BME280;34064;44.942;0.008;2023-05-22T12:44:10;98247.19;;;28.60;43.39
47280;BME280;34064;44.942;0.008;2023-05-22T12:46:37;98240.41;;;28.80;42.70
47280;BME280;34064;44.942;0.008;2023-05-22T12:49:04;98235.09;;;28.90;43.13
47280;BME280;34064;44.942;0.008;2023-05-22T12:51:31;98230.44;;;29.08;42.65
47280;BME280;34064;44.942;0.008;2023-05-22T12:53:59;98223.22;;;29.19;43.10
47280;BME280;34064;44.942;0.008;2023-05-22T12:56:26;98218.41;;;29.31;42.39
47280;BME280;34064;44.942;0.008;2023-05-22T12:58:52;98218.69;;;29.30;41.56
47280;BME280;34064;44.942;0.008;2023-05-22T13:01:19;98212.66;;;29.50;41.93
47280;BME280;34064;44.942;0.008;2023-05-22T13:03:46;98198.44;;;29.75;42.08
47280;BME280;34064;44.942;0.008;2023-05-22T13:06:13;98189.81;;;29.88;41.13
47280;BME280;34064;44.942;0.008;2023-05-22T13:08:39;98195.94;;;29.96;40.77
47280;BME280;34064;44.942;0.008;2023-05-22T13:11:05;98190.75;;;29.99;40.77
47280;BME280;34064;44.942;0.008;2023-05-22T13:13:32;98191.22;;;29.91;40.60
47280;BME280;34064;44.942;0.008;2023-05-22T13:15:58;98189.81;;;29.88;40.99
47280;BME280;34064;44.942;0.008;2023-05-22T13:18:25;98188.16;;;29.87;40.38
47280;BME280;34064;44.942;0.008;2023-05-22T13:20:51;98216.22;;;29.50;40.60
47280;BME280;34064;44.942;0.008;2023-05-22T13:23:17;98229.97;;;29.16;40.57
47280;BME280;34064;44.942;0.008;2023-05-22T13:25:44;98246.47;;;28.82;41.13